This is the latest recevied weather packets stored in our database for station/object VK4NB-13. If no packets are shown the sender has not sent any weather packets the latest 10 day(s).
| Time | Temp. | Humidity | Pressure | Rain* | Wind** | Luminosity | Snow |
|---|---|---|---|---|---|---|---|
| 1777486501 | 20.56° C | 84% | 1019 hPa | 0 mm | - | - | - |
| 1777485302 | 21.11° C | 83% | 1019.1 hPa | 0 mm | - | - | - |
| 1777484401 | 21.11° C | 83% | 1019.1 hPa | 0 mm | - | - | - |
| 1777482922 | 21.11° C | 82% | 1019.2 hPa | 0 mm | - | - | - |
| 1777482602 | 21.11° C | 82% | 1019.1 hPa | 0 mm | - | - | - |
| 1777482301 | 21.67° C | 82% | 1019.5 hPa | 0 mm | - | - | - |
| 1777479902 | 21.67° C | 82% | 1019.7 hPa | 0 mm | - | - | - |
| 1777479601 | 21.67° C | 81% | 1019.8 hPa | 0 mm | - | - | - |
| 1777477523 | 21.11° C | 83% | 1019.8 hPa | 0 mm | - | - | - |
| 1777476602 | 20.56° C | 84% | 1020.2 hPa | 0 mm | - | - | - |
| 1777476002 | 21.11° C | 82% | 1020.3 hPa | 0 mm | - | - | - |
| 1777475402 | 21.11° C | 84% | 1020.1 hPa | 0 mm | - | - | - |
| 1777474203 | 21.11° C | 85% | 1020.3 hPa | 0 mm | - | - | - |
| 1777473023 | 21.11° C | 85% | 1020.5 hPa | 0 mm | - | - | - |
| 1777470303 | 21.67° C | 85% | 1021.1 hPa | 0 mm | - | - | - |
| 1777469702 | 21.67° C | 84% | 1021 hPa | 0 mm | - | - | - |
| 1777467324 | 21.67° C | 85% | 1021.2 hPa | 0 mm | - | - | - |
| 1777466402 | 21.67° C | 85% | 1021 hPa | 0 mm | - | - | - |
| 1777462802 | 21.11° C | 86% | 1021.4 hPa | 1.02 mm | - | - | - |
| 1777458602 | 21.67° C | 82% | 1021.3 hPa | 0.25 mm | - | - | - |
| 1777457702 | 21.67° C | 85% | 1020.8 hPa | 0 mm | - | - | - |
| 1777456503 | 22.78° C | 81% | 1020.6 hPa | 0 mm | - | - | - |
| 1777453803 | 22.22° C | 86% | 1020.2 hPa | 0 mm | - | - | - |
| 1777453203 | 22.78° C | 86% | 1020.2 hPa | 0 mm | - | - | - |
| 1777452904 | 22.78° C | 86% | 1020 hPa | 0 mm | - | - | - |
* Rain latest hour (hover to see other rain measurements)
** Current wind speed in m/s (hover to see current wind gust speed)